Time;durP1;ratioP1;P1;durP2;ratioP2;P2;SDS_P1;SDS_P2;PMS_P1;PMS_P2;Temp;Humidity;BMP_temperature;BMP_pressure;BME280_temperature;BME280_humidity;BME280_pressure;Samples;Min_cycle;Max_cycle;Signal;HPM_P1;HPM_P2
2023/04/11 00:02:06;;;;;;;1.20;1.10;;;13.10;93.30;;;;;;5007318;28;20911;-67
2023/04/11 00:04:37;;;;;;;1.67;1.47;;;13.20;93.20;;;;;;5006913;28;20469;-68
2023/04/11 00:07:04;;;;;;;1.20;1.10;;;13.20;93.20;;;;;;5007102;28;20596;-68
2023/04/11 00:09:31;;;;;;;1.50;1.40;;;13.30;93.20;;;;;;5005927;28;20461;-68
2023/04/11 00:11:58;;;;;;;1.53;1.10;;;13.30;93.10;;;;;;5007035;28;20469;-67
2023/04/11 00:14:27;;;;;;;2.50;1.50;;;13.30;93.10;;;;;;5006347;28;20913;-68
2023/04/11 00:16:54;;;;;;;1.87;1.53;;;13.30;93.00;;;;;;5007188;28;20764;-68
2023/04/11 00:19:24;;;;;;;1.57;1.47;;;13.40;92.90;;;;;;5006606;28;20469;-67
2023/04/11 00:21:51;;;;;;;1.87;1.30;;;13.40;93.00;;;;;;5006745;28;20465;-68
2023/04/11 00:24:17;;;;;;;1.97;1.83;;;13.40;92.90;;;;;;5006799;28;20465;-66
2023/04/11 00:26:44;;;;;;;1.90;1.80;;;13.40;93.10;;;;;;5006903;28;20531;-68
2023/04/11 00:29:11;;;;;;;1.57;1.33;;;13.50;93.10;;;;;;5007359;28;20464;-68
2023/04/11 00:31:37;;;;;;;1.93;1.53;;;13.40;93.00;;;;;;5008721;28;20477;-68
2023/04/11 00:34:04;;;;;;;2.17;1.70;;;13.50;93.10;;;;;;5015314;28;20980;-67
2023/04/11 00:36:32;;;;;;;2.77;1.30;;;13.50;93.00;;;;;;5014000;28;20555;-68
2023/04/11 00:39:00;;;;;;;4.27;1.87;;;13.50;93.00;;;;;;5013991;28;20495;-67
2023/04/11 00:41:26;;;;;;;2.33;1.47;;;13.50;93.00;;;;;;5013603;28;20475;-66
2023/04/11 00:43:53;;;;;;;2.23;1.30;;;13.50;93.10;;;;;;5013926;28;20833;-67
2023/04/11 00:46:21;;;;;;;1.90;1.50;;;13.50;93.10;;;;;;5013079;28;20873;-69
2023/04/11 00:48:48;;;;;;;5.87;1.53;;;13.50;93.20;;;;;;5013591;28;20469;-68
2023/04/11 00:51:15;;;;;;;1.93;1.83;;;13.50;93.10;;;;;;5013327;28;20902;-68
2023/04/11 00:53:44;;;;;;;2.50;1.70;;;13.60;93.10;;;;;;5013047;28;20471;-68
2023/04/11 00:56:11;;;;;;;1.90;1.33;;;13.50;93.20;;;;;;5012916;28;20823;-68
2023/04/11 00:58:38;;;;;;;1.77;1.53;;;13.50;93.30;;;;;;5085886;22;20496;-67
2023/04/11 01:01:08;;;;;;;1.20;1.10;;;13.60;93.30;;;;;;5012169;28;20477;-67
2023/04/11 01:03:35;;;;;;;1.40;1.30;;;13.50;93.50;;;;;;5008511;28;20556;-67
2023/04/11 01:06:02;;;;;;;1.73;1.50;;;13.50;93.40;;;;;;5010389;28;20830;-67
2023/04/11 01:08:28;;;;;;;2.17;1.83;;;13.50;93.50;;;;;;4996262;28;20462;-67
2023/04/11 01:10:57;;;;;;;2.70;1.43;;;13.50;93.50;;;;;;4996371;28;20814;-67
2023/04/11 01:13:24;;;;;;;2.27;1.80;;;13.50;93.70;;;;;;5013240;28;20472;-67
2023/04/11 01:15:51;;;;;;;1.30;1.20;;;13.50;93.80;;;;;;5016280;28;20552;-67
2023/04/11 01:18:18;;;;;;;1.90;1.70;;;13.50;93.90;;;;;;5012553;28;20461;-68
2023/04/11 01:20:44;;;;;;;1.60;1.47;;;13.50;94.00;;;;;;5013092;28;20516;-67
2023/04/11 01:23:13;;;;;;;1.33;1.20;;;13.50;94.20;;;;;;5016038;28;20534;-67
2023/04/11 01:25:41;;;;;;;2.03;1.30;;;13.50;94.20;;;;;;4996929;28;20485;-67
2023/04/11 01:28:08;;;;;;;1.30;1.20;;;13.50;94.50;;;;;;4996475;28;20477;-67
2023/04/11 01:30:35;;;;;;;1.83;1.50;;;13.50;94.50;;;;;;4996050;28;20457;-67
2023/04/11 01:33:02;;;;;;;1.67;1.10;;;13.50;94.60;;;;;;4996664;28;20461;-67
2023/04/11 01:35:28;;;;;;;1.50;1.17;;;13.40;94.80;;;;;;4996210;28;20977;-67
2023/04/11 01:37:55;;;;;;;1.77;1.50;;;13.40;95.30;;;;;;4994969;28;20489;-67
2023/04/11 01:40:22;;;;;;;1.30;1.20;;;13.50;95.70;;;;;;4995437;28;20488;-67
2023/04/11 01:42:50;;;;;;;2.13;1.93;;;13.40;96.00;;;;;;4995944;28;20493;-67
2023/04/11 01:45:19;;;;;;;1.70;1.60;;;13.40;96.20;;;;;;4992250;28;20458;-67
2023/04/11 01:47:45;;;;;;;2.37;1.60;;;13.40;96.40;;;;;;4988724;28;20487;-68
2023/04/11 01:50:12;;;;;;;3.15;1.63;;;13.30;96.90;;;;;;4988533;28;20470;-67
2023/04/11 01:52:39;;;;;;;2.30;1.83;;;13.30;97.60;;;;;;4992653;28;20214;-67
2023/04/11 01:55:06;;;;;;;1.60;1.50;;;13.20;97.60;;;;;;4993321;28;20470;-67
2023/04/11 01:57:33;;;;;;;1.40;1.30;;;13.20;98.00;;;;;;4992233;28;20478;-67
2023/04/11 02:00:01;;;;;;;1.63;1.53;;;13.00;98.40;;;;;;4992436;28;20472;-67
2023/04/11 02:02:28;;;;;;;1.65;1.48;;;13.00;98.70;;;;;;4992747;28;20493;-67
2023/04/11 02:04:54;;;;;;;1.83;1.40;;;12.90;99.10;;;;;;4993048;28;20205;-67
2023/04/11 02:07:21;;;;;;;1.50;1.30;;;12.90;99.60;;;;;;4999712;28;20227;-67
2023/04/11 02:09:48;;;;;;;1.50;1.40;;;12.80;99.90;;;;;;5011833;28;20464;-67
2023/04/11 02:12:15;;;;;;;1.53;1.43;;;12.70;99.90;;;;;;5011575;28;20469;-67
2023/04/11 02:14:43;;;;;;;1.90;1.70;;;12.60;99.90;;;;;;5011844;28;20871;-67
2023/04/11 02:17:12;;;;;;;1.45;1.35;;;12.50;99.90;;;;;;5012197;28;20608;-67
2023/04/11 02:19:40;;;;;;;1.55;1.45;;;12.30;99.90;;;;;;5003605;28;20203;-68
2023/04/11 02:22:06;;;;;;;1.63;1.30;;;12.20;99.90;;;;;;5012740;28;20195;-67
2023/04/11 02:24:33;;;;;;;2.35;1.55;;;12.20;99.90;;;;;;5012508;28;20214;-67
2023/04/11 02:27:00;;;;;;;2.00;1.50;;;12.00;99.90;;;;;;5012532;28;20226;-67
2023/04/11 02:29:28;;;;;;;1.58;1.48;;;11.90;99.90;;;;;;4996214;28;20227;-67
2023/04/11 02:31:54;;;;;;;1.40;1.25;;;11.80;99.90;;;;;;4993756;28;20627;-67
2023/04/11 02:34:22;;;;;;;1.27;1.02;;;11.50;99.90;;;;;;4993712;28;20203;-67
2023/04/11 02:36:49;;;;;;;1.55;1.25;;;11.40;99.90;;;;;;5001900;28;20240;-67
2023/04/11 02:39:16;;;;;;;2.47;1.25;;;11.20;99.90;;;;;;5002374;28;20210;-67
2023/04/11 02:41:43;;;;;;;1.63;1.13;;;11.10;99.90;;;;;;5003965;28;20238;-67
2023/04/11 02:44:11;;;;;;;1.10;1.00;;;11.00;99.90;;;;;;5006171;28;20211;-67
2023/04/11 02:46:37;;;;;;;1.20;1.10;;;10.90;99.90;;;;;;5009582;28;20223;-67
2023/04/11 02:49:05;;;;;;;1.75;1.13;;;10.80;99.90;;;;;;5011472;28;20198;-67
2023/04/11 02:51:33;;;;;;;1.70;1.15;;;10.80;99.90;;;;;;5011248;28;20594;-67
2023/04/11 02:53:59;;;;;;;2.03;1.00;;;10.70;99.90;;;;;;5011683;28;20195;-67
2023/04/11 02:56:29;;;;;;;1.30;1.00;;;10.60;99.90;;;;;;5010917;28;20218;-67
2023/04/11 02:58:56;;;;;;;1.25;1.15;;;10.60;99.90;;;;;;5011608;28;20205;-67
2023/04/11 03:01:24;;;;;;;2.30;0.93;;;10.60;99.90;;;;;;5011775;28;20288;-67
2023/04/11 03:03:50;;;;;;;1.08;0.85;;;10.50;99.90;;;;;;5011393;28;20205;-67
2023/04/11 03:06:17;;;;;;;1.75;0.80;;;10.50;99.90;;;;;;5011517;28;20226;-67
2023/04/11 03:08:46;;;;;;;4.15;1.10;;;10.40;99.90;;;;;;5011364;28;20222;-67
2023/04/11 03:11:13;;;;;;;1.52;1.17;;;10.30;99.90;;;;;;5011281;28;20225;-67
2023/04/11 03:13:39;;;;;;;1.55;1.10;;;10.20;99.90;;;;;;5011322;28;20205;-67
2023/04/11 03:16:07;;;;;;;2.03;1.15;;;10.20;99.90;;;;;;5011419;28;20241;-67
2023/04/11 03:18:34;;;;;;;1.20;0.90;;;10.10;99.90;;;;;;5011317;28;20607;-67
2023/04/11 03:21:01;;;;;;;1.38;0.90;;;10.10;99.90;;;;;;5004353;28;20199;-67
2023/04/11 03:23:27;;;;;;;1.15;1.05;;;10.00;99.90;;;;;;5007379;28;20232;-67
2023/04/11 03:25:57;;;;;;;1.77;1.00;;;10.00;99.90;;;;;;5011180;28;20210;-67
2023/04/11 03:28:24;;;;;;;2.90;1.10;;;10.00;99.90;;;;;;5011148;28;20597;-67
2023/04/11 03:30:50;;;;;;;1.00;0.90;;;10.00;99.90;;;;;;5010538;28;20202;-67
2023/04/11 03:33:17;;;;;;;1.10;0.93;;;9.90;99.90;;;;;;4999080;28;20230;-67
2023/04/11 03:35:44;;;;;;;1.38;0.90;;;9.90;99.90;;;;;;4979604;28;20227;-67
2023/04/11 03:38:10;;;;;;;1.27;1.08;;;9.80;99.90;;;;;;4981494;28;20567;-67
2023/04/11 03:40:37;;;;;;;1.23;0.90;;;9.80;99.90;;;;;;4984844;28;20214;-67
2023/04/11 03:43:05;;;;;;;1.50;0.85;;;9.80;99.90;;;;;;4981633;28;20200;-67
2023/04/11 03:45:32;;;;;;;2.03;0.90;;;9.70;99.90;;;;;;4981451;28;20662;-67
2023/04/11 03:47:58;;;;;;;1.98;1.23;;;9.70;99.90;;;;;;4980508;28;20249;-67
2023/04/11 03:50:25;;;;;;;0.82;0.80;;;9.70;99.90;;;;;;4985119;28;20211;-67
2023/04/11 03:52:52;;;;;;;1.52;0.85;;;9.70;99.90;;;;;;4985106;28;20203;-67
2023/04/11 03:55:19;;;;;;;1.63;1.00;;;9.70;99.90;;;;;;4990346;28;20686;-67
2023/04/11 03:57:46;;;;;;;0.90;0.70;;;9.70;99.90;;;;;;4979514;28;20243;-67
2023/04/11 04:00:14;;;;;;;2.55;1.15;;;9.70;99.90;;;;;;4979674;28;20681;-67
2023/04/11 04:02:41;;;;;;;4.65;1.60;;;9.60;99.90;;;;;;4980155;28;20204;-67
2023/04/11 04:05:08;;;;;;;0.90;0.82;;;9.70;99.90;;;;;;4979557;28;20204;-67
2023/04/11 04:07:35;;;;;;;1.75;1.13;;;9.70;99.90;;;;;;4978646;28;20303;-68
2023/04/11 04:10:02;;;;;;;1.85;1.20;;;9.70;99.90;;;;;;4978056;28;20211;-67
2023/04/11 04:12:28;;;;;;;1.38;0.80;;;9.70;99.90;;;;;;4982887;28;20546;-67
2023/04/11 04:14:55;;;;;;;1.75;1.20;;;9.70;99.90;;;;;;4978655;28;20586;-66
2023/04/11 04:17:24;;;;;;;0.90;0.80;;;9.60;99.90;;;;;;4979345;28;20219;-67
2023/04/11 04:19:50;;;;;;;1.67;0.90;;;9.60;99.90;;;;;;4977311;28;20211;-67
2023/04/11 04:22:17;;;;;;;3.13;1.13;;;9.60;99.90;;;;;;4978153;28;21037;-67
2023/04/11 04:24:46;;;;;;;5.05;1.40;;;9.60;99.90;;;;;;4981618;28;20514;-67
2023/04/11 04:27:13;;;;;;;1.30;1.15;;;9.60;99.90;;;;;;4985372;28;20227;-68
2023/04/11 04:29:44;;;;;;;1.10;0.90;;;9.60;99.90;;;;;;4987077;28;20230;-68
2023/04/11 04:32:11;;;;;;;2.75;0.90;;;9.60;99.90;;;;;;4990483;28;20554;-67
2023/04/11 04:34:45;;;;;;;1.00;0.85;;;9.60;99.90;;;;;;4989211;28;20198;-67
2023/04/11 04:37:20;;;;;;;1.75;0.80;;;9.50;99.90;;;;;;4976351;28;20225;-67
2023/04/11 04:39:52;;;;;;;1.67;0.70;;;9.60;99.90;;;;;;4981637;28;20294;-67
2023/04/11 04:42:20;;;;;;;1.40;1.00;;;9.50;99.90;;;;;;4990639;28;20560;-67
2023/04/11 04:44:47;;;;;;;2.05;1.00;;;9.40;99.90;;;;;;4990334;28;20562;-67
2023/04/11 04:47:13;;;;;;;2.67;1.33;;;9.40;99.90;;;;;;4984854;28;20242;-67
2023/04/11 04:49:41;;;;;;;1.00;0.90;;;9.40;99.90;;;;;;4987791;28;20236;-67
2023/04/11 04:52:08;;;;;;;1.20;0.70;;;9.40;99.90;;;;;;4985411;28;20203;-67
2023/04/11 04:54:35;;;;;;;1.50;1.00;;;9.30;99.90;;;;;;4979231;28;20203;-68
2023/04/11 04:57:01;;;;;;;0.90;0.70;;;9.30;99.90;;;;;;4984954;28;20215;-68
2023/04/11 04:59:28;;;;;;;2.45;0.75;;;9.30;99.90;;;;;;4970982;28;20200;-67
2023/04/11 05:01:55;;;;;;;1.98;1.25;;;9.30;99.90;;;;;;4991571;28;20580;-67
2023/04/11 05:04:21;;;;;;;1.67;0.82;;;9.20;99.90;;;;;;5003327;28;20237;-68
2023/04/11 05:06:49;;;;;;;1.00;0.80;;;9.20;99.90;;;;;;4998214;28;20234;-67
2023/04/11 05:09:17;;;;;;;2.63;1.00;;;9.20;99.90;;;;;;5004055;28;20229;-68
2023/04/11 05:11:43;;;;;;;1.35;0.80;;;9.20;99.90;;;;;;5001519;28;20206;-68
2023/04/11 05:14:10;;;;;;;1.27;0.80;;;9.20;99.90;;;;;;5004967;28;20202;-67
2023/04/11 05:16:42;;;;;;;0.90;0.70;;;9.10;99.90;;;;;;4997682;28;20233;-67
2023/04/11 05:19:09;;;;;;;1.10;0.80;;;9.00;99.90;;;;;;4996918;28;20539;-68
2023/04/11 05:21:37;;;;;;;1.10;0.77;;;9.00;99.90;;;;;;5005340;28;20237;-67
2023/04/11 05:24:05;;;;;;;1.55;0.90;;;9.00;99.90;;;;;;5009237;28;20226;-67
2023/04/11 05:26:32;;;;;;;1.65;0.85;;;8.90;99.90;;;;;;4999696;28;20726;-67
2023/04/11 05:28:59;;;;;;;1.33;1.15;;;8.80;99.90;;;;;;5010644;28;20222;-67
2023/04/11 05:31:26;;;;;;;1.00;0.80;;;8.70;99.90;;;;;;5013206;28;20210;-67
2023/04/11 05:33:53;;;;;;;0.90;0.80;;;8.70;99.90;;;;;;5012779;28;20248;-67
2023/04/11 05:36:19;;;;;;;0.80;0.70;;;8.60;99.90;;;;;;4998925;28;20649;-68
2023/04/11 05:38:46;;;;;;;0.95;0.82;;;8.60;99.90;;;;;;4993287;28;20207;-67
2023/04/11 05:41:14;;;;;;;1.17;0.90;;;8.60;99.90;;;;;;4993606;28;20540;-67
2023/04/11 05:43:41;;;;;;;1.00;0.82;;;8.60;99.90;;;;;;4985274;28;20204;-67
2023/04/11 05:46:08;;;;;;;1.88;0.73;;;8.50;99.90;;;;;;4993443;28;20591;-67
2023/04/11 05:48:36;;;;;;;1.10;0.75;;;8.50;99.90;;;;;;5001602;28;20242;-67
2023/04/11 05:51:04;;;;;;;2.95;1.30;;;8.40;99.90;;;;;;5012544;28;20302;-67
2023/04/11 05:53:30;;;;;;;1.20;0.95;;;8.40;99.90;;;;;;5012660;28;20209;-67
2023/04/11 05:55:57;;;;;;;1.00;0.70;;;8.40;99.90;;;;;;5012515;28;20229;-67
2023/04/11 05:58:25;;;;;;;1.30;0.90;;;8.40;99.90;;;;;;4994655;28;20207;-67
2023/04/11 06:00:52;;;;;;;2.53;1.17;;;8.40;99.90;;;;;;4992479;28;20294;-67
2023/04/11 06:03:20;;;;;;;2.63;1.13;;;8.40;99.90;;;;;;4992753;28;20199;-67
2023/04/11 06:05:47;;;;;;;1.33;0.95;;;8.40;99.90;;;;;;4992515;28;20214;-67
2023/04/11 06:08:13;;;;;;;2.35;0.98;;;8.30;99.90;;;;;;4992986;28;20586;-67
2023/04/11 06:10:40;;;;;;;1.25;0.98;;;8.30;99.90;;;;;;4992358;28;20588;-67
2023/04/11 06:13:07;;;;;;;1.30;1.02;;;8.30;99.90;;;;;;4993068;28;20201;-67
2023/04/11 06:15:35;;;;;;;1.15;0.82;;;8.30;99.90;;;;;;4993036;28;20289;-67
2023/04/11 06:18:01;;;;;;;1.52;0.98;;;8.20;99.90;;;;;;4995857;28;20666;-67
2023/04/11 06:20:28;;;;;;;1.80;0.90;;;8.20;99.90;;;;;;5012134;28;20577;-67
2023/04/11 06:22:55;;;;;;;1.45;1.10;;;8.20;99.90;;;;;;4993431;28;20211;-67
2023/04/11 06:25:23;;;;;;;1.42;1.00;;;8.10;99.90;;;;;;4992571;28;20279;-67
2023/04/11 06:27:50;;;;;;;1.33;1.00;;;8.10;99.90;;;;;;4991796;28;20231;-67
2023/04/11 06:30:17;;;;;;;0.80;0.70;;;8.10;99.90;;;;;;4991571;28;20203;-67
2023/04/11 06:32:45;;;;;;;1.17;1.00;;;8.10;99.90;;;;;;4992195;28;20812;-67
2023/04/11 06:35:12;;;;;;;1.00;0.80;;;8.10;99.90;;;;;;4996958;28;20666;-67
2023/04/11 06:37:38;;;;;;;1.00;0.77;;;8.20;99.90;;;;;;5004090;28;20223;-67
2023/04/11 06:40:08;;;;;;;1.00;0.80;;;8.20;99.90;;;;;;5010783;28;20190;-67
2023/04/11 06:42:34;;;;;;;1.95;1.50;;;8.20;99.90;;;;;;5004540;28;20241;-67
2023/04/11 06:45:01;;;;;;;1.10;0.90;;;8.20;99.90;;;;;;5011227;28;20206;-67
2023/04/11 06:47:28;;;;;;;0.80;0.68;;;8.20;99.90;;;;;;5004029;28;20226;-67
2023/04/11 06:49:56;;;;;;;1.05;0.88;;;8.30;99.90;;;;;;5001268;28;20226;-67
2023/04/11 06:52:23;;;;;;;1.63;0.90;;;8.30;99.90;;;;;;4986543;28;20623;-67
2023/04/11 06:54:49;;;;;;;1.98;0.98;;;8.30;99.90;;;;;;5007580;28;20268;-66
2023/04/11 06:57:16;;;;;;;1.58;1.30;;;8.30;99.90;;;;;;4993397;28;20243;-67
2023/04/11 06:59:43;;;;;;;1.15;0.90;;;8.30;99.90;;;;;;4989760;28;20199;-67
2023/04/11 07:02:10;;;;;;;1.00;0.85;;;8.30;99.90;;;;;;4999607;28;20682;-68
2023/04/11 07:04:36;;;;;;;0.90;0.80;;;8.30;99.90;;;;;;5000241;28;20202;-68
2023/04/11 07:07:05;;;;;;;1.13;0.90;;;8.40;99.90;;;;;;4980572;28;20229;-68
2023/04/11 07:09:32;;;;;;;1.50;1.10;;;8.40;99.90;;;;;;4978743;28;20222;-68
2023/04/11 07:11:58;;;;;;;1.02;0.80;;;8.50;99.90;;;;;;4983681;28;20230;-68
2023/04/11 07:14:25;;;;;;;1.73;0.90;;;8.30;99.90;;;;;;4998039;28;20210;-68
2023/04/11 07:16:52;;;;;;;2.17;1.00;;;8.30;99.90;;;;;;4986601;28;20840;-67
2023/04/11 07:19:19;;;;;;;1.50;0.80;;;8.30;99.90;;;;;;4984011;28;20655;-68
2023/04/11 07:21:45;;;;;;;2.28;1.02;;;8.30;99.90;;;;;;4987001;28;20230;-68
2023/04/11 07:24:13;;;;;;;1.10;0.80;;;8.50;99.90;;;;;;5007469;28;20608;-68
2023/04/11 07:26:41;;;;;;;0.90;0.80;;;8.60;99.90;;;;;;5007854;28;20229;-68
2023/04/11 07:29:08;;;;;;;1.83;1.25;;;8.70;99.90;;;;;;4974031;28;20302;-68
2023/04/11 07:31:34;;;;;;;2.13;1.00;;;8.80;99.90;;;;;;4991303;28;20207;-69
2023/04/11 07:34:01;;;;;;;1.85;1.10;;;9.00;99.90;;;;;;4990426;28;20218;-68
2023/04/11 07:36:28;;;;;;;1.80;1.00;;;9.00;99.90;;;;;;4990787;28;20258;-68
2023/04/11 07:38:54;;;;;;;2.08;1.10;;;9.00;99.90;;;;;;4991458;28;20199;-68
2023/04/11 07:41:22;;;;;;;6.00;1.33;;;9.10;99.90;;;;;;4992799;28;20482;-68
2023/04/11 07:43:51;;;;;;;1.60;1.00;;;9.10;99.90;;;;;;5007516;28;20210;-68
2023/04/11 07:46:17;;;;;;;2.00;1.00;;;9.30;99.90;;;;;;5004956;28;20230;-68
2023/04/11 07:48:44;;;;;;;2.65;0.93;;;9.50;99.90;;;;;;5003358;28;20254;-68
2023/04/11 07:51:12;;;;;;;5.10;1.20;;;9.70;99.90;;;;;;5002556;28;20198;-68
2023/04/11 07:53:38;;;;;;;1.60;1.17;;;10.00;99.90;;;;;;4989726;28;20207;-68
2023/04/11 07:56:06;;;;;;;4.32;1.10;;;10.20;99.90;;;;;;5000909;28;20277;-68
2023/04/11 07:58:35;;;;;;;2.88;1.00;;;10.30;99.90;;;;;;5010472;28;20198;-68
2023/04/11 08:01:02;;;;;;;1.73;1.17;;;10.50;99.90;;;;;;5010149;28;20213;-68
2023/04/11 08:03:30;;;;;;;3.53;1.30;;;10.80;99.90;;;;;;4996359;28;20299;-68
2023/04/11 08:05:57;;;;;;;3.47;1.27;;;11.00;99.90;;;;;;4990697;28;20258;-68
2023/04/11 08:08:24;;;;;;;4.65;1.45;;;11.30;99.90;;;;;;5005539;28;20213;-68
2023/04/11 08:10:52;;;;;;;2.35;1.17;;;11.70;99.90;;;;;;4998268;28;20221;-68
2023/04/11 08:13:19;;;;;;;1.50;1.10;;;12.00;99.90;;;;;;4990924;28;20210;-68
2023/04/11 08:15:48;;;;;;;2.35;1.10;;;12.10;99.90;;;;;;4982378;28;20633;-68
2023/04/11 08:18:15;;;;;;;2.42;1.10;;;11.80;99.90;;;;;;4983602;28;20203;-68
2023/04/11 08:20:42;;;;;;;2.45;1.25;;;11.70;99.90;;;;;;4982810;28;20262;-68
2023/04/11 08:23:09;;;;;;;2.47;1.38;;;11.60;99.90;;;;;;5010012;28;20662;-68
2023/04/11 08:25:36;;;;;;;2.50;1.30;;;11.50;99.90;;;;;;5002604;28;20289;-68
2023/04/11 08:28:04;;;;;;;3.28;1.10;;;11.40;99.90;;;;;;4988999;28;20580;-68
2023/04/11 08:30:31;;;;;;;2.45;1.15;;;11.20;99.90;;;;;;4999979;28;20222;-68
2023/04/11 08:32:59;;;;;;;1.60;1.23;;;10.90;99.90;;;;;;5002036;28;20317;-68
2023/04/11 08:35:26;;;;;;;3.08;1.20;;;10.90;99.90;;;;;;5004664;28;20210;-68
2023/04/11 08:37:53;;;;;;;2.88;1.10;;;11.00;99.90;;;;;;5007949;28;20236;-68
2023/04/11 08:40:20;;;;;;;2.03;0.95;;;11.10;99.90;;;;;;5005815;28;20253;-68
2023/04/11 08:42:46;;;;;;;1.80;1.10;;;11.20;99.90;;;;;;4999010;28;20314;-68
2023/04/11 08:45:13;;;;;;;1.88;1.10;;;11.30;99.90;;;;;;5010473;28;20225;-68
2023/04/11 08:47:40;;;;;;;3.80;1.10;;;11.50;99.90;;;;;;5009890;28;20717;-68
2023/04/11 08:50:09;;;;;;;3.95;1.38;;;11.90;99.90;;;;;;4982323;28;20233;-68
2023/04/11 08:52:39;;;;;;;1.92;1.00;;;12.10;99.90;;;;;;4983984;28;20286;-68
2023/04/11 08:55:07;;;;;;;1.90;1.23;;;12.30;99.90;;;;;;4993249;28;20222;-68
2023/04/11 08:57:36;;;;;;;1.67;1.23;;;12.50;99.90;;;;;;5008626;28;20230;-68
2023/04/11 09:00:12;;;;;;;2.63;1.27;;;12.70;99.90;;;;;;5002457;28;20199;-68
2023/04/11 09:03:05;;;;;;;2.25;1.20;;;12.90;99.90;;;;;;5009425;28;20202;-68
2023/04/11 09:05:37;;;;;;;5.17;1.03;;;12.90;99.90;;;;;;4988983;28;20206;-68
2023/04/11 09:08:06;;;;;;;1.92;0.90;;;12.90;99.90;;;;;;5003241;28;20965;-68
2023/04/11 09:10:33;;;;;;;2.10;1.20;;;13.20;99.90;;;;;;4993947;28;20270;-68
2023/04/11 09:13:01;;;;;;;2.40;1.10;;;13.50;98.90;;;;;;5009764;28;20604;-68
2023/04/11 09:15:29;;;;;;;1.83;1.33;;;13.50;98.20;;;;;;4991715;28;20489;-68
2023/04/11 09:17:57;;;;;;;1.73;1.20;;;13.20;98.30;;;;;;5003162;28;20489;-68
2023/04/11 09:20:28;;;;;;;1.60;1.10;;;13.10;99.00;;;;;;4994314;28;20465;-68
2023/04/11 09:22:57;;;;;;;1.60;1.20;;;13.20;98.50;;;;;;5000919;28;20497;-68
2023/04/11 09:25:24;;;;;;;1.73;1.20;;;13.70;98.60;;;;;;5013103;28;20467;-68
2023/04/11 09:28:07;;;;;;;2.13;1.23;;;14.10;97.60;;;;;;5003629;28;20582;-68
2023/04/11 09:30:34;;;;;;;1.87;1.20;;;14.30;96.90;;;;;;4993183;28;20481;-68
2023/04/11 09:33:18;;;;;;;2.03;1.60;;;14.40;97.30;;;;;;4993391;28;20894;-68
2023/04/11 09:35:47;;;;;;;1.30;1.00;;;14.50;96.80;;;;;;5008846;28;20464;-68
2023/04/11 09:38:27;;;;;;;1.87;1.33;;;14.60;96.20;;;;;;4996755;28;20472;-68
2023/04/11 09:40:55;;;;;;;1.67;1.00;;;14.60;95.20;;;;;;4987836;28;20467;-69
2023/04/11 09:43:21;;;;;;;2.70;1.33;;;14.20;94.70;;;;;;5006229;28;20949;-68
2023/04/11 09:45:49;;;;;;;1.87;1.00;;;14.10;95.00;;;;;;5005138;28;20468;-68
2023/04/11 09:48:16;;;;;;;2.57;1.30;;;14.20;95.70;;;;;;4988804;28;20497;-68
2023/04/11 09:50:43;;;;;;;0.90;0.80;;;14.00;96.00;;;;;;5004497;28;20535;-68
2023/04/11 09:53:11;;;;;;;2.90;1.13;;;13.80;94.70;;;;;;5009656;28;20560;-68
2023/04/11 09:55:39;;;;;;;4.53;1.60;;;13.60;95.30;;;;;;5008174;28;20462;-68
2023/04/11 09:58:09;;;;;;;2.03;1.50;;;13.30;95.00;;;;;;4995902;28;20984;-68
2023/04/11 10:00:36;;;;;;;1.20;1.10;;;12.90;95.80;;;;;;4998043;28;20461;-68
2023/04/11 10:03:03;;;;;;;1.70;1.10;;;12.60;96.00;;;;;;5003049;28;20468;-68
2023/04/11 10:05:30;;;;;;;1.73;1.08;;;12.50;96.20;;;;;;5003348;28;20532;-68
2023/04/11 10:08:03;;;;;;;1.10;1.00;;;12.50;96.40;;;;;;5004008;28;20226;-68
2023/04/11 10:10:30;;;;;;;2.90;1.10;;;12.80;96.90;;;;;;4984740;28;20532;-68
2023/04/11 10:12:58;;;;;;;0.90;0.80;;;13.60;96.90;;;;;;5009098;28;20472;-68
2023/04/11 10:15:25;;;;;;;1.67;1.33;;;14.40;96.20;;;;;;5012766;28;20468;-68
2023/04/11 10:18:08;;;;;;;2.37;1.33;;;14.80;95.80;;;;;;5004261;28;20478;-68
2023/04/11 10:20:44;;;;;;;2.90;1.20;;;15.30;96.80;;;;;;5000739;28;20461;-68
2023/04/11 10:23:12;;;;;;;2.97;1.60;;;15.50;94.50;;;;;;4998393;28;20461;-68
2023/04/11 10:25:57;;;;;;;1.30;1.07;;;15.90;94.70;;;;;;4993989;28;20496;-68
2023/04/11 10:28:33;;;;;;;1.63;0.90;;;15.90;94.40;;;;;;4994455;28;20537;-68
2023/04/11 10:31:04;;;;;;;2.40;1.17;;;15.20;94.70;;;;;;4993259;28;20976;-68
2023/04/11 10:33:31;;;;;;;2.30;1.67;;;14.70;94.90;;;;;;4998952;28;20960;-68
2023/04/11 10:36:01;;;;;;;3.20;1.40;;;14.40;95.20;;;;;;5001606;28;20536;-68
2023/04/11 10:38:48;;;;;;;2.57;0.83;;;14.70;95.30;;;;;;4994392;28;20467;-68
2023/04/11 10:41:33;;;;;;;1.57;1.13;;;14.90;95.10;;;;;;4994426;28;20457;-68
2023/04/11 10:44:19;;;;;;;2.30;1.00;;;15.50;94.50;;;;;;5003830;28;20952;-68
2023/04/11 10:46:48;;;;;;;1.70;1.20;;;15.70;95.10;;;;;;5003822;28;20481;-68
2023/04/11 10:49:34;;;;;;;4.13;1.40;;;15.80;93.10;;;;;;5002767;28;20465;-68
2023/04/11 10:52:17;;;;;;;2.87;1.20;;;15.90;92.60;;;;;;5003586;28;20560;-68
2023/04/11 10:54:45;;;;;;;3.07;1.27;;;16.10;92.50;;;;;;5005343;28;21000;-68
2023/04/11 10:57:12;;;;;;;1.63;1.23;;;16.00;91.50;;;;;;4999469;28;20517;-68
2023/04/11 11:00:10;;;;;;;1.63;1.10;;;15.70;92.30;;;;;;4991847;28;20458;-68
2023/04/11 11:02:38;;;;;;;2.30;1.27;;;15.00;92.90;;;;;;5000171;28;20470;-68
2023/04/11 11:05:26;;;;;;;2.20;1.20;;;14.10;93.80;;;;;;5001350;28;20470;-68
2023/04/11 11:07:53;;;;;;;1.97;1.17;;;13.40;96.70;;;;;;5000235;28;20485;-68
2023/04/11 11:10:37;;;;;;;1.77;1.10;;;13.20;98.80;;;;;;5003118;28;20505;-68
2023/04/11 11:13:04;;;;;;;1.80;1.20;;;13.20;98.60;;;;;;5001956;28;20465;-68
2023/04/11 11:15:36;;;;;;;1.27;1.00;;;13.40;98.40;;;;;;5005006;28;20465;-68
2023/04/11 11:18:04;;;;;;;2.60;1.33;;;13.70;98.10;;;;;;4994488;28;20474;-68
2023/04/11 11:20:30;;;;;;;1.23;0.87;;;14.10;97.60;;;;;;5003145;28;20460;-68
2023/04/11 11:23:01;;;;;;;2.47;1.23;;;14.60;97.40;;;;;;5002744;28;20851;-68
2023/04/11 11:25:28;;;;;;;1.40;1.30;;;15.20;96.10;;;;;;4988820;28;20983;-68
2023/04/11 11:28:02;;;;;;;2.30;1.43;;;15.60;93.90;;;;;;4987120;28;20483;-68
2023/04/11 11:30:29;;;;;;;2.17;1.37;;;15.60;93.10;;;;;;4980096;28;20478;-68
2023/04/11 11:32:58;;;;;;;1.90;1.20;;;15.70;91.70;;;;;;4980039;28;20474;-68
2023/04/11 11:35:25;;;;;;;1.40;1.10;;;15.60;92.50;;;;;;5011016;28;21268;-68
2023/04/11 11:37:52;;;;;;;2.37;1.40;;;15.60;93.00;;;;;;5010398;28;20485;-68
2023/04/11 11:40:21;;;;;;;3.50;1.83;;;15.50;92.10;;;;;;4990421;28;20574;-68
2023/04/11 11:49:26;;;;;;;2.43;1.40;;;15.30;91.10;;;;;;5001119;28;20705;-92
2023/04/11 11:51:53;;;;;;;1.97;1.13;;;15.80;90.90;;;;;;5032873;28;20464;-91
2023/04/11 11:54:20;;;;;;;1.20;1.10;;;16.00;89.40;;;;;;5033231;28;20469;-92
2023/04/11 11:56:50;;;;;;;2.93;1.23;;;16.70;89.00;;;;;;5033476;28;20982;-92
2023/04/11 11:59:26;;;;;;;3.73;2.43;;;17.00;85.70;;;;;;5033436;28;20472;-92
2023/04/11 12:01:53;;;;;;;2.50;1.30;;;17.60;85.70;;;;;;5033404;28;20558;-91
2023/04/11 12:05:08;;;;;;;2.80;1.73;;;18.00;85.20;;;;;;5032569;28;20476;-91
2023/04/11 12:07:38;;;;;;;2.03;1.07;;;18.20;83.80;;;;;;5033843;28;20488;-91
2023/04/11 12:10:07;;;;;;;2.00;0.93;;;18.00;83.30;;;;;;5032864;28;20476;-91
2023/04/11 12:12:53;;;;;;;1.13;0.97;;;18.10;83.80;;;;;;5036696;28;20480;-91
2023/04/11 12:15:22;;;;;;;1.83;1.03;;;18.00;83.40;;;;;;5032932;28;20884;-91
2023/04/11 12:17:50;;;;;;;2.40;1.60;;;17.70;84.00;;;;;;5032781;28;20471;-91
2023/04/11 12:20:22;;;;;;;3.00;1.20;;;17.30;84.90;;;;;;5031984;28;20551;-91
2023/04/11 12:22:49;;;;;;;1.33;1.23;;;16.70;86.00;;;;;;5031974;28;20565;-91
2023/04/11 12:25:15;;;;;;;1.40;1.00;;;16.60;86.40;;;;;;5032301;28;20480;-92
2023/04/11 12:27:43;;;;;;;1.70;1.30;;;16.90;86.40;;;;;;5031838;28;20469;-91
2023/04/11 12:30:13;;;;;;;1.47;1.20;;;16.80;86.30;;;;;;5033298;28;20487;-91
2023/04/11 12:32:41;;;;;;;3.63;1.13;;;16.50;84.30;;;;;;5031649;28;20484;-91
2023/04/11 12:35:22;;;;;;;1.93;1.13;;;16.40;85.60;;;;;;5032604;28;20471;-91
2023/04/11 12:37:51;;;;;;;1.50;1.20;;;16.60;86.00;;;;;;5032679;28;21015;-91
2023/04/11 12:40:18;;;;;;;1.60;1.20;;;16.10;83.50;;;;;;5036942;28;20498;-91
2023/04/11 12:45:28;;;;;;;1.80;1.10;;;16.00;85.40;;;;;;5093360;27;20571;-65
2023/04/11 12:47:54;;;;;;;3.07;1.30;;;15.60;82.40;;;;;;5074534;28;20478;-71
2023/04/11 12:50:22;;;;;;;1.20;1.10;;;15.40;81.90;;;;;;5073700;28;20979;-68
2023/04/11 12:52:49;;;;;;;2.13;1.50;;;15.50;80.20;;;;;;5071545;28;20565;-64
2023/04/11 12:55:15;;;;;;;1.20;0.90;;;15.30;79.60;;;;;;5069001;28;20516;-66
2023/04/11 12:57:42;;;;;;;2.30;1.33;;;15.10;82.10;;;;;;5070063;28;20490;-65
2023/04/11 13:00:11;;;;;;;1.50;1.00;;;15.30;82.70;;;;;;5069801;28;20885;-71
2023/04/11 13:02:39;;;;;;;1.50;1.10;;;15.30;83.20;;;;;;5067466;28;20459;-68
2023/04/11 13:05:08;;;;;;;1.93;1.40;;;15.30;81.40;;;;;;5068782;28;20486;-64
2023/04/11 13:07:35;;;;;;;1.73;1.13;;;15.50;80.90;;;;;;5067453;28;20484;-65